Time;durP1;ratioP1;P1;durP2;ratioP2;P2;SDS_P1;SDS_P2;PMS_P1;PMS_P2;Temp;Humidity;BMP_temperature;BMP_pressure;BME280_temperature;BME280_humidity;BME280_pressure;Samples;Min_cycle;Max_cycle;Signal;HPM_P1;HPM_P2
2023/06/11 00:01:34;;;;;;;3.83;2.00;;;14.30;62.20;;;;;;4993031;28;20232;-90
2023/06/11 00:04:02;;;;;;;3.53;1.80;;;14.30;70.80;;;;;;4992405;28;20262;-89
2023/06/11 00:06:29;;;;;;;6.13;1.93;;;14.30;79.40;;;;;;4988895;28;20203;-90
2023/06/11 00:08:55;;;;;;;5.00;1.70;;;14.30;87.10;;;;;;4992620;28;20592;-89
2023/06/11 00:11:24;;;;;;;3.37;1.77;;;14.30;90.80;;;;;;4991784;28;20665;-90
2023/06/11 00:13:53;;;;;;;4.50;2.20;;;14.30;95.00;;;;;;4992895;28;20690;-89
2023/06/11 00:16:19;;;;;;;4.43;1.67;;;14.30;97.40;;;;;;4990386;28;20197;-89
2023/06/11 00:18:47;;;;;;;2.87;2.00;;;14.20;99.90;;;;;;4992586;28;20190;-89
2023/06/11 00:21:16;;;;;;;6.57;1.90;;;14.20;99.90;;;;;;4992089;28;20205;-90
2023/06/11 00:23:43;;;;;;;6.90;1.80;;;14.20;99.90;;;;;;4992149;28;20286;-89
2023/06/11 00:26:10;;;;;;;3.90;1.97;;;14.20;99.90;;;;;;4990811;28;20208;-89
2023/06/11 00:28:38;;;;;;;3.97;2.20;;;14.20;99.90;;;;;;4991491;28;20209;-90
2023/06/11 00:31:05;;;;;;;5.47;1.80;;;14.20;99.90;;;;;;4992775;28;20200;-89
2023/06/11 00:33:32;;;;;;;3.13;1.93;;;14.20;99.90;;;;;;4991792;28;20201;-90
2023/06/11 00:35:59;;;;;;;3.67;1.80;;;14.20;99.90;;;;;;4991437;28;20276;-88
2023/06/11 00:38:26;;;;;;;3.53;1.80;;;14.20;99.90;;;;;;4989456;28;20201;-89
2023/06/11 00:40:53;;;;;;;4.63;1.80;;;14.10;99.90;;;;;;4989963;28;20205;-90
2023/06/11 00:43:23;;;;;;;4.67;1.80;;;14.10;99.90;;;;;;4992264;28;20209;-88
2023/06/11 00:45:52;;;;;;;6.07;2.10;;;14.20;99.90;;;;;;4992031;28;20197;-90
2023/06/11 00:48:20;;;;;;;5.53;2.10;;;14.20;99.90;;;;;;4989303;28;20212;-89
2023/06/11 00:50:48;;;;;;;3.13;2.07;;;14.10;99.90;;;;;;4990687;28;20197;-89
2023/06/11 00:53:15;;;;;;;5.30;1.80;;;14.20;99.90;;;;;;4989503;28;20289;-89
2023/06/11 00:55:42;;;;;;;3.47;1.90;;;14.20;99.90;;;;;;4990622;28;20231;-89
2023/06/11 00:58:13;;;;;;;8.33;2.23;;;14.20;99.90;;;;;;4992784;28;20593;-89
2023/06/11 01:00:42;;;;;;;4.10;1.87;;;14.20;99.90;;;;;;4991104;28;20726;-89
2023/06/11 01:03:17;;;;;;;2.43;1.77;;;14.20;99.90;;;;;;4992058;28;20210;-89
2023/06/11 01:05:49;;;;;;;5.93;2.00;;;14.20;99.90;;;;;;4985007;28;20654;-90
2023/06/11 01:08:19;;;;;;;5.27;1.93;;;14.20;99.90;;;;;;4990430;28;20290;-89
2023/06/11 01:10:47;;;;;;;5.73;2.07;;;14.10;99.90;;;;;;4989140;28;20201;-89
2023/06/11 01:13:13;;;;;;;6.33;2.10;;;14.20;99.90;;;;;;4990990;28;20193;-89
2023/06/11 01:15:40;;;;;;;5.23;1.80;;;14.20;99.90;;;;;;4989270;28;20223;-90
2023/06/11 01:18:19;;;;;;;3.83;2.00;;;14.20;99.90;;;;;;4987974;28;20198;-89
2023/06/11 01:20:51;;;;;;;4.23;2.13;;;14.20;99.90;;;;;;4988396;28;20288;-88
2023/06/11 01:23:25;;;;;;;3.60;1.83;;;14.20;99.90;;;;;;4992810;28;20209;-91
2023/06/11 01:26:10;;;;;;;3.00;1.80;;;14.20;99.90;;;;;;4988300;28;20194;-89
2023/06/11 01:28:39;;;;;;;6.43;2.07;;;14.20;99.90;;;;;;4983486;28;20686;-89
2023/06/11 01:31:12;;;;;;;3.33;1.97;;;14.20;99.90;;;;;;4992293;28;20194;-89
2023/06/11 01:33:39;;;;;;;5.30;1.87;;;14.20;99.90;;;;;;4989764;28;20214;-89
2023/06/11 01:36:06;;;;;;;4.13;1.90;;;14.20;99.90;;;;;;4987251;28;20694;-89
2023/06/11 01:38:41;;;;;;;3.23;1.77;;;14.20;99.90;;;;;;4991423;28;20206;-90
2023/06/11 01:41:09;;;;;;;3.43;1.90;;;14.10;99.90;;;;;;4992804;28;20204;-89
2023/06/11 01:43:36;;;;;;;4.80;1.80;;;14.10;99.90;;;;;;4995754;28;20663;-89
2023/06/11 01:46:05;;;;;;;2.77;2.00;;;14.10;99.90;;;;;;4994514;28;20200;-89
2023/06/11 01:48:31;;;;;;;7.13;2.17;;;14.10;99.90;;;;;;4994116;28;20578;-89
2023/06/11 01:50:58;;;;;;;3.53;2.00;;;14.10;99.90;;;;;;4994490;28;20205;-90
2023/06/11 01:53:25;;;;;;;2.67;1.90;;;14.10;99.90;;;;;;4994988;28;20205;-89
2023/06/11 01:55:52;;;;;;;2.13;1.90;;;14.10;99.90;;;;;;4993386;28;20234;-91
2023/06/11 01:58:19;;;;;;;4.60;2.10;;;14.10;99.90;;;;;;4995812;28;20208;-90
2023/06/11 02:00:47;;;;;;;5.03;2.00;;;14.00;99.90;;;;;;4995771;28;20248;-89
2023/06/11 02:03:16;;;;;;;4.07;1.90;;;14.00;99.90;;;;;;4996582;28;20289;-90
2023/06/11 02:05:43;;;;;;;4.37;2.07;;;14.00;99.90;;;;;;4989266;28;20192;-89
2023/06/11 02:08:10;;;;;;;4.90;2.00;;;14.00;99.90;;;;;;4993924;28;20202;-89
2023/06/11 02:10:37;;;;;;;4.07;1.80;;;14.00;99.90;;;;;;4995160;28;20198;-89
2023/06/11 02:13:03;;;;;;;5.40;2.10;;;14.00;99.90;;;;;;4994997;28;20216;-90
2023/06/11 02:15:30;;;;;;;3.07;2.00;;;14.00;99.90;;;;;;4993963;28;20220;-90
2023/06/11 02:17:57;;;;;;;3.97;2.17;;;14.00;99.90;;;;;;4991699;28;20202;-89
2023/06/11 02:20:25;;;;;;;5.00;1.93;;;14.00;99.90;;;;;;4995277;28;20201;-89
2023/06/11 02:22:52;;;;;;;2.73;2.03;;;14.00;99.90;;;;;;4985445;28;20212;-90
2023/06/11 02:25:19;;;;;;;4.63;2.10;;;14.00;99.90;;;;;;4994770;28;20304;-89
2023/06/11 02:27:45;;;;;;;5.70;2.03;;;13.90;99.90;;;;;;4994651;28;20208;-89
2023/06/11 02:30:13;;;;;;;4.90;2.00;;;13.90;99.90;;;;;;4991408;28;20206;-90
2023/06/11 02:32:40;;;;;;;5.70;2.07;;;13.90;99.90;;;;;;4994589;28;20213;-89
2023/06/11 02:35:08;;;;;;;4.27;1.80;;;13.90;99.90;;;;;;4995283;28;20224;-89
2023/06/11 02:37:36;;;;;;;3.63;2.20;;;13.90;99.90;;;;;;4994267;28;20288;-90
2023/06/11 02:40:04;;;;;;;2.20;2.00;;;13.90;99.90;;;;;;4994693;28;21073;-89
2023/06/11 02:42:31;;;;;;;2.70;1.83;;;13.90;99.90;;;;;;4994260;28;20559;-89
2023/06/11 02:44:57;;;;;;;4.30;2.47;;;13.90;99.90;;;;;;4992567;28;20658;-89
2023/06/11 02:47:24;;;;;;;6.23;2.10;;;13.90;99.90;;;;;;4991278;28;20206;-90
2023/06/11 02:49:51;;;;;;;7.43;2.00;;;13.90;99.90;;;;;;4994270;28;20690;-90
2023/06/11 02:52:18;;;;;;;3.97;2.00;;;13.90;99.90;;;;;;4994524;28;20206;-89
2023/06/11 02:54:46;;;;;;;2.63;1.80;;;14.00;99.90;;;;;;4994968;28;20213;-89
2023/06/11 02:57:12;;;;;;;3.60;1.80;;;14.00;99.90;;;;;;4992081;28;20206;-89
2023/06/11 02:59:39;;;;;;;6.00;2.10;;;13.90;99.90;;;;;;4996007;28;20197;-90
2023/06/11 03:02:06;;;;;;;7.27;2.33;;;14.00;99.90;;;;;;4994914;28;20250;-89
2023/06/11 03:04:33;;;;;;;5.50;2.13;;;14.00;99.90;;;;;;4993906;28;20191;-90
2023/06/11 03:07:00;;;;;;;2.70;2.00;;;14.00;99.90;;;;;;4995484;28;20207;-90
2023/06/11 03:09:26;;;;;;;6.80;2.17;;;14.00;99.90;;;;;;4994974;28;20206;-90
2023/06/11 03:11:54;;;;;;;5.37;2.27;;;14.00;99.90;;;;;;4994110;28;20208;-90
2023/06/11 03:14:24;;;;;;;3.80;2.30;;;14.00;99.90;;;;;;4995354;28;20210;-90
2023/06/11 03:16:51;;;;;;;3.33;2.27;;;14.00;99.90;;;;;;4995337;28;20733;-90
2023/06/11 03:19:18;;;;;;;3.23;2.00;;;14.10;99.90;;;;;;4994373;28;20198;-90
2023/06/11 03:21:45;;;;;;;3.63;2.13;;;14.20;99.90;;;;;;4992641;28;20372;-90
2023/06/11 03:24:12;;;;;;;2.60;2.10;;;14.30;99.90;;;;;;4993496;28;20623;-90
2023/06/11 03:26:38;;;;;;;3.67;2.33;;;14.30;99.90;;;;;;4995273;28;20213;-89
2023/06/11 03:29:07;;;;;;;9.23;2.20;;;14.40;99.90;;;;;;4995530;28;20690;-91
2023/06/11 03:31:33;;;;;;;5.13;2.30;;;14.40;99.90;;;;;;4995027;28;20550;-89
2023/06/11 03:34:00;;;;;;;3.50;2.53;;;14.50;99.90;;;;;;4990663;28;20569;-89
2023/06/11 03:36:27;;;;;;;3.70;1.87;;;14.50;99.90;;;;;;4991041;28;20264;-91
2023/06/11 03:38:54;;;;;;;5.60;2.10;;;14.60;99.90;;;;;;4995129;28;20216;-90
2023/06/11 03:41:21;;;;;;;2.43;1.90;;;14.60;99.90;;;;;;4991095;28;20202;-91
2023/06/11 03:43:48;;;;;;;3.30;2.13;;;14.70;99.90;;;;;;4994731;28;20290;-91
2023/06/11 03:46:16;;;;;;;6.57;2.13;;;14.80;99.90;;;;;;4995695;28;20203;-91
2023/06/11 03:48:43;;;;;;;4.10;1.90;;;14.80;99.90;;;;;;4994184;28;20208;-90
2023/06/11 03:51:10;;;;;;;3.83;2.17;;;14.90;99.90;;;;;;4985441;28;20199;-91
2023/06/11 03:53:36;;;;;;;2.93;2.00;;;15.00;99.90;;;;;;4993026;28;20207;-90
2023/06/11 03:56:03;;;;;;;5.15;2.20;;;15.10;99.90;;;;;;4992928;28;20718;-90
2023/06/11 03:58:30;;;;;;;3.73;1.93;;;15.40;99.90;;;;;;4993004;28;20204;-91
2023/06/11 04:00:57;;;;;;;5.78;2.00;;;16.00;99.90;;;;;;4993295;28;20241;-90
2023/06/11 04:03:25;;;;;;;5.47;2.10;;;16.60;99.90;;;;;;4997351;28;20208;-90
2023/06/11 04:05:52;;;;;;;3.90;1.90;;;17.10;99.90;;;;;;4987785;28;20676;-90
2023/06/11 04:08:19;;;;;;;5.28;2.13;;;17.50;99.90;;;;;;4990985;28;20205;-94
2023/06/11 04:10:46;;;;;;;3.88;2.03;;;17.80;99.90;;;;;;4992716;28;20214;-91
2023/06/11 04:13:13;;;;;;;3.60;1.90;;;18.10;99.90;;;;;;4993995;28;20192;-91
2023/06/11 04:15:40;;;;;;;4.05;2.20;;;18.40;99.90;;;;;;4992424;28;20214;-90
2023/06/11 04:18:06;;;;;;;5.40;2.00;;;18.70;99.90;;;;;;4987337;28;20245;-91
2023/06/11 04:20:34;;;;;;;4.50;1.92;;;18.90;99.90;;;;;;4994256;28;20218;-90
2023/06/11 04:23:01;;;;;;;3.45;2.10;;;19.20;99.90;;;;;;4993568;28;20202;-90
2023/06/11 04:25:31;;;;;;;3.70;1.90;;;19.30;99.90;;;;;;4992432;28;20203;-91
2023/06/11 04:27:58;;;;;;;6.63;2.30;;;19.60;99.90;;;;;;4992768;28;20195;-91
2023/06/11 04:30:24;;;;;;;4.03;3.05;;;19.80;99.90;;;;;;4992731;28;20241;-91
2023/06/11 04:32:54;;;;;;;7.05;1.85;;;20.00;99.90;;;;;;4992248;28;20649;-90
2023/06/11 04:35:23;;;;;;;5.65;1.98;;;20.10;99.90;;;;;;4987725;28;20231;-91
2023/06/11 04:37:51;;;;;;;3.05;1.88;;;20.30;99.60;;;;;;4991915;28;20626;-90
2023/06/11 04:40:20;;;;;;;5.30;2.47;;;20.50;94.60;;;;;;4990294;28;20213;-91
2023/06/11 04:42:47;;;;;;;5.53;2.30;;;20.70;93.30;;;;;;4992958;28;20203;-90
2023/06/11 04:45:18;;;;;;;4.20;2.13;;;20.90;90.40;;;;;;4990256;28;20199;-90
2023/06/11 04:47:45;;;;;;;8.57;2.20;;;21.00;87.00;;;;;;4992035;28;20202;-91
2023/06/11 04:50:12;;;;;;;4.20;2.17;;;21.20;81.10;;;;;;4985661;28;20210;-90
2023/06/11 04:52:42;;;;;;;3.83;1.85;;;21.30;74.00;;;;;;4989332;28;20595;-91
2023/06/11 04:55:11;;;;;;;4.82;2.20;;;21.40;67.60;;;;;;4989901;28;20257;-88
2023/06/11 04:57:39;;;;;;;3.90;1.90;;;21.50;63.40;;;;;;4990174;28;20207;-91
2023/06/11 05:00:08;;;;;;;3.08;2.00;;;21.70;59.30;;;;;;4991279;28;20199;-89
2023/06/11 05:02:37;;;;;;;4.60;2.22;;;21.80;54.90;;;;;;4992266;28;20237;-90
2023/06/11 05:05:05;;;;;;;4.85;1.83;;;21.90;52.00;;;;;;4986076;28;20603;-91
2023/06/11 05:07:32;;;;;;;6.32;2.00;;;21.80;49.00;;;;;;4988462;28;20249;-88
2023/06/11 05:09:59;;;;;;;4.88;2.10;;;21.60;43.90;;;;;;4985549;28;20199;-89
2023/06/11 05:12:27;;;;;;;2.95;2.15;;;21.40;42.00;;;;;;4990416;28;20238;-92
2023/06/11 05:14:54;;;;;;;5.20;2.58;;;21.20;39.80;;;;;;4985442;28;20215;-92
2023/06/11 05:17:21;;;;;;;3.08;2.30;;;20.90;37.60;;;;;;4986742;28;20207;-91
2023/06/11 05:19:47;;;;;;;5.00;2.47;;;20.50;38.10;;;;;;4988050;28;20199;-90
2023/06/11 05:22:14;;;;;;;6.15;2.20;;;20.30;37.80;;;;;;4990405;28;20202;-91
2023/06/11 05:24:42;;;;;;;4.25;2.20;;;20.00;38.90;;;;;;4989953;28;20202;-91
2023/06/11 05:27:09;;;;;;;6.88;2.30;;;19.90;39.80;;;;;;4984621;28;20684;-91
2023/06/11 05:29:37;;;;;;;5.50;2.15;;;19.70;40.70;;;;;;4991547;28;20279;-91
2023/06/11 05:32:08;;;;;;;5.68;2.40;;;19.60;42.30;;;;;;4991378;28;20238;-91
2023/06/11 05:34:37;;;;;;;4.78;2.40;;;19.50;43.40;;;;;;4991259;28;20198;-91
2023/06/11 05:37:04;;;;;;;3.17;2.50;;;19.60;43.60;;;;;;4991542;28;20767;-91
2023/06/11 05:39:31;;;;;;;3.17;1.98;;;19.60;44.00;;;;;;4993261;28;20210;-91
2023/06/11 05:41:58;;;;;;;4.40;2.40;;;19.50;43.80;;;;;;4990958;28;20257;-92
2023/06/11 05:44:25;;;;;;;6.47;2.55;;;19.50;43.90;;;;;;4990215;28;20576;-91
2023/06/11 05:46:53;;;;;;;6.10;2.50;;;19.60;45.00;;;;;;4992065;28;20191;-90
2023/06/11 05:49:20;;;;;;;3.60;2.40;;;19.60;46.90;;;;;;4992302;28;20206;-90
2023/06/11 05:51:46;;;;;;;4.05;2.17;;;19.80;49.90;;;;;;4991881;28;20199;-90
2023/06/11 05:54:13;;;;;;;4.93;2.80;;;20.00;50.10;;;;;;4989084;28;20528;-90
2023/06/11 05:56:40;;;;;;;3.58;2.67;;;20.20;50.90;;;;;;4991780;28;20704;-91
2023/06/11 05:59:07;;;;;;;5.07;2.60;;;20.30;50.00;;;;;;4990635;28;20900;-91
2023/06/11 06:01:34;;;;;;;5.72;2.60;;;20.30;48.80;;;;;;4991342;28;20238;-91
2023/06/11 06:04:03;;;;;;;5.07;2.58;;;20.30;48.70;;;;;;4991693;28;20577;-91
2023/06/11 06:06:31;;;;;;;4.97;2.53;;;20.20;48.70;;;;;;4991631;28;20199;-89
2023/06/11 06:08:59;;;;;;;5.68;2.72;;;20.30;50.30;;;;;;4992583;28;20660;-90
2023/06/11 06:11:25;;;;;;;6.68;2.80;;;20.30;47.70;;;;;;4988852;28;20195;-90
2023/06/11 06:13:52;;;;;;;11.73;3.58;;;20.40;49.10;;;;;;4991848;28;20661;-90
2023/06/11 06:16:19;;;;;;;6.32;2.72;;;20.60;49.40;;;;;;4991412;28;20223;-90
2023/06/11 06:18:46;;;;;;;7.28;2.58;;;20.80;50.40;;;;;;4991428;28;20222;-89
2023/06/11 06:21:14;;;;;;;6.82;2.60;;;21.00;50.60;;;;;;4990554;28;20627;-90
2023/06/11 06:23:41;;;;;;;4.03;2.70;;;21.20;50.10;;;;;;4988882;28;20210;-90
2023/06/11 06:26:07;;;;;;;7.30;2.65;;;21.40;49.70;;;;;;4989307;28;20430;-91
2023/06/11 06:28:35;;;;;;;4.78;2.80;;;21.50;49.10;;;;;;4995230;28;20286;-91
2023/06/11 06:31:07;;;;;;;4.93;3.00;;;21.60;50.20;;;;;;4997316;28;20209;-93
2023/06/11 06:33:37;;;;;;;4.72;3.20;;;21.60;49.70;;;;;;4995405;28;20257;-93
2023/06/11 06:36:05;;;;;;;6.75;3.03;;;21.70;49.20;;;;;;4990308;28;20315;-93
2023/06/11 06:38:35;;;;;;;8.75;3.13;;;21.70;49.30;;;;;;4996289;28;20199;-89
2023/06/11 06:41:02;;;;;;;6.65;2.80;;;21.70;49.30;;;;;;4996700;28;20286;-90
2023/06/11 06:43:29;;;;;;;4.90;2.85;;;21.80;77.90;;;;;;4996723;28;20231;-91
2023/06/11 06:45:55;;;;;;;6.53;3.78;;;21.90;50.80;;;;;;4995703;28;20274;-90
2023/06/11 06:48:23;;;;;;;8.35;3.40;;;22.00;53.30;;;;;;4990104;28;20209;-90
2023/06/11 06:50:50;;;;;;;4.50;3.10;;;22.10;52.50;;;;;;4992441;28;20195;-91
2023/06/11 06:53:17;;;;;;;4.88;3.25;;;22.20;51.60;;;;;;4990942;28;20195;-90
2023/06/11 06:55:45;;;;;;;6.63;3.17;;;22.30;52.50;;;;;;4994024;28;20218;-91
2023/06/11 06:58:12;;;;;;;7.28;3.20;;;22.40;53.50;;;;;;4990330;28;20195;-90
2023/06/11 07:00:38;;;;;;;3.97;3.10;;;22.50;53.00;;;;;;4995711;28;20203;-91
2023/06/11 07:03:05;;;;;;;7.13;3.70;;;22.50;51.40;;;;;;4991368;28;20249;-91
2023/06/11 07:05:32;;;;;;;8.98;3.35;;;22.60;51.70;;;;;;4995915;28;20207;-92
2023/06/11 07:07:59;;;;;;;5.35;3.60;;;22.80;54.60;;;;;;4995287;28;20199;-91
2023/06/11 07:10:26;;;;;;;4.25;3.10;;;23.10;53.70;;;;;;4995517;28;20210;-90
2023/06/11 07:12:54;;;;;;;5.90;3.80;;;23.30;53.30;;;;;;4995279;28;20227;-89
2023/06/11 07:15:21;;;;;;;8.35;3.47;;;23.50;51.30;;;;;;4994363;28;20253;-90
2023/06/11 07:17:47;;;;;;;6.07;3.63;;;23.50;50.70;;;;;;4994810;28;20218;-90
2023/06/11 07:20:14;;;;;;;4.78;4.03;;;23.60;50.70;;;;;;4994222;28;20210;-89
2023/06/11 07:22:41;;;;;;;6.13;3.40;;;23.60;51.40;;;;;;4993949;28;20217;-89
2023/06/11 07:25:08;;;;;;;6.88;3.63;;;23.60;50.50;;;;;;4994933;28;20195;-89
2023/06/11 07:27:35;;;;;;;5.28;3.72;;;23.70;49.20;;;;;;4991909;28;20572;-90
2023/06/11 07:30:04;;;;;;;5.65;3.60;;;23.70;50.60;;;;;;4986126;28;20206;-89
2023/06/11 07:32:31;;;;;;;5.90;3.70;;;23.80;51.10;;;;;;4989369;28;20210;-88
2023/06/11 07:34:57;;;;;;;6.22;3.45;;;23.80;50.50;;;;;;4992648;28;20207;-88
2023/06/11 07:37:24;;;;;;;8.57;4.00;;;23.80;49.80;;;;;;4993130;28;20223;-88
2023/06/11 07:39:51;;;;;;;5.72;4.15;;;23.90;51.70;;;;;;4991914;28;20242;-88
2023/06/11 07:42:18;;;;;;;7.45;4.30;;;24.00;51.60;;;;;;4989645;28;20195;-87
2023/06/11 07:44:45;;;;;;;4.40;4.00;;;24.10;53.00;;;;;;4991227;28;20205;-87
2023/06/11 07:47:13;;;;;;;6.13;4.28;;;24.30;52.50;;;;;;4991633;28;20282;-88
2023/06/11 07:49:39;;;;;;;5.78;4.28;;;24.30;53.20;;;;;;4992265;28;20206;-87
2023/06/11 07:52:07;;;;;;;6.75;4.20;;;24.40;53.10;;;;;;4991929;28;20190;-89
2023/06/11 07:54:34;;;;;;;6.95;4.35;;;24.50;53.80;;;;;;4989746;28;20281;-88
2023/06/11 07:57:01;;;;;;;5.28;3.63;;;24.60;53.40;;;;;;4993530;28;20214;-87
2023/06/11 07:59:29;;;;;;;4.82;4.20;;;24.60;59.60;;;;;;4991182;28;20207;-88
2023/06/11 08:01:56;;;;;;;7.28;4.07;;;24.60;51.70;;;;;;4992453;28;20318;-88
2023/06/11 08:04:24;;;;;;;6.13;4.18;;;24.80;51.20;;;;;;4992309;28;20214;-88
2023/06/11 08:06:52;;;;;;;6.07;4.00;;;24.80;49.70;;;;;;4990262;28;20579;-88
2023/06/11 08:09:19;;;;;;;8.57;4.18;;;24.80;51.10;;;;;;4991283;28;20578;-87
2023/06/11 08:11:46;;;;;;;5.57;3.90;;;24.90;49.00;;;;;;4992729;28;20206;-89
2023/06/11 08:14:13;;;;;;;5.72;4.43;;;24.90;48.40;;;;;;4987973;28;20199;-88
2023/06/11 08:16:40;;;;;;;5.93;3.90;;;24.80;48.80;;;;;;4990566;28;20214;-87
2023/06/11 08:19:07;;;;;;;8.18;4.20;;;24.90;48.50;;;;;;4992410;28;20285;-88
2023/06/11 08:21:35;;;;;;;5.55;4.30;;;25.00;49.40;;;;;;4990332;28;21143;-87
2023/06/11 08:24:02;;;;;;;10.20;5.03;;;25.00;48.80;;;;;;4989230;28;20203;-87
2023/06/11 08:26:28;;;;;;;10.30;4.47;;;25.10;49.40;;;;;;4991777;28;20199;-88
2023/06/11 08:28:55;;;;;;;6.13;4.28;;;25.10;50.00;;;;;;4989353;28;20198;-87
2023/06/11 08:31:22;;;;;;;5.45;4.43;;;25.20;50.20;;;;;;4991681;28;20207;-87
2023/06/11 08:33:49;;;;;;;5.10;4.05;;;25.30;50.90;;;;;;4990170;28;20202;-88
2023/06/11 08:36:16;;;;;;;6.47;4.50;;;25.30;48.70;;;;;;4989894;28;20273;-87
2023/06/11 08:38:45;;;;;;;8.25;4.43;;;25.40;49.40;;;;;;4990060;28;20704;-87
2023/06/11 08:41:12;;;;;;;6.65;4.72;;;25.50;48.30;;;;;;4990968;28;20202;-88
2023/06/11 08:43:38;;;;;;;4.88;4.40;;;25.60;47.80;;;;;;4989568;28;20198;-88
2023/06/11 08:46:06;;;;;;;5.93;4.45;;;25.60;48.30;;;;;;4991409;28;20195;-88
2023/06/11 08:48:38;;;;;;;6.28;4.68;;;25.70;46.20;;;;;;4990276;28;20207;-90
2023/06/11 08:51:08;;;;;;;5.53;4.28;;;25.70;49.40;;;;;;4990712;28;20205;-89
2023/06/11 08:53:36;;;;;;;4.95;4.45;;;25.80;46.20;;;;;;4990555;28;20221;-89
2023/06/11 08:56:05;;;;;;;5.13;4.43;;;25.80;45.50;;;;;;4989489;28;20199;-89
2023/06/11 08:58:33;;;;;;;6.03;4.43;;;25.90;45.10;;;;;;4991095;28;20215;-89
2023/06/11 09:01:07;;;;;;;5.20;4.50;;;25.80;41.30;;;;;;4990827;28;20605;-89
2023/06/11 09:03:34;;;;;;;5.25;4.75;;;25.60;40.60;;;;;;4988322;28;20660;-88
2023/06/11 09:06:01;;;;;;;5.97;4.97;;;25.60;39.60;;;;;;4989491;28;20571;-89
2023/06/11 09:08:28;;;;;;;6.80;4.60;;;25.60;40.40;;;;;;4991720;28;20207;-89
2023/06/11 09:10:55;;;;;;;10.70;4.45;;;25.80;40.60;;;;;;4985767;28;20199;-88
2023/06/11 09:13:27;;;;;;;4.75;4.20;;;25.80;39.20;;;;;;4992444;28;20242;-89
2023/06/11 09:15:56;;;;;;;5.65;4.55;;;25.90;39.80;;;;;;4991753;28;20199;-87
2023/06/11 09:18:24;;;;;;;7.07;4.50;;;26.00;37.00;;;;;;4991275;28;20274;-91
2023/06/11 09:20:52;;;;;;;8.20;4.10;;;26.20;36.90;;;;;;4992669;28;20199;-90
2023/06/11 09:23:26;;;;;;;6.40;4.40;;;26.50;32.60;;;;;;4992868;28;20203;-90
2023/06/11 09:25:53;;;;;;;4.75;4.35;;;26.70;30.90;;;;;;4988481;28;20195;-90
2023/06/11 09:28:20;;;;;;;7.53;4.55;;;27.00;29.20;;;;;;4993075;28;20198;-88
2023/06/11 09:30:55;;;;;;;5.68;4.55;;;27.40;27.80;;;;;;4991190;28;20198;-89
2023/06/11 09:33:22;;;;;;;5.70;4.30;;;27.70;23.00;;;;;;4988959;28;20293;-89
2023/06/11 09:35:49;;;;;;;5.55;4.50;;;28.00;20.30;;;;;;4985081;28;20205;-88
2023/06/11 09:38:16;;;;;;;8.90;4.30;;;28.20;17.60;;;;;;4987620;28;20215;-89
2023/06/11 09:40:54;;;;;;;7.32;4.90;;;28.50;14.90;;;;;;4988898;28;20199;-90
2023/06/11 09:43:23;;;;;;;6.13;4.22;;;28.50;14.30;;;;;;4991132;28;20206;-90
2023/06/11 09:45:52;;;;;;;4.60;3.78;;;28.60;11.30;;;;;;4990250;28;20206;-90
2023/06/11 09:48:21;;;;;;;5.20;4.07;;;28.90;8.30;;;;;;4986565;28;20918;-92
2023/06/11 09:50:49;;;;;;;7.72;4.53;;;29.20;5.20;;;;;;4990559;28;20205;-89
2023/06/11 09:53:19;;;;;;;5.70;4.15;;;29.20;1.80;;;;;;4990771;28;20199;-91
2023/06/11 09:55:48;;;;;;;4.07;3.67;;;29.10;1.00;;;;;;4991464;28;20195;-89
2023/06/11 09:58:17;;;;;;;14.32;4.22;;;28.80;1.00;;;;;;4993596;28;20214;-90
2023/06/11 10:00:47;;;;;;;5.38;3.90;;;28.50;1.00;;;;;;4989395;28;20218;-90
2023/06/11 10:03:14;;;;;;;7.25;3.92;;;28.20;1.00;;;;;;4995234;28;20206;-88
2023/06/11 10:05:42;;;;;;;5.45;4.00;;;28.00;1.00;;;;;;4993056;28;20202;-88
2023/06/11 10:08:15;;;;;;;7.10;4.10;;;27.70;3.10;;;;;;4995574;28;20199;-88
2023/06/11 10:10:44;;;;;;;6.07;3.63;;;27.60;1.00;;;;;;4994009;28;20207;-88
2023/06/11 10:13:11;;;;;;;5.70;3.70;;;27.70;1.00;;;;;;4994310;28;20675;-87
2023/06/11 10:15:38;;;;;;;5.68;3.80;;;27.70;1.00;;;;;;4994891;28;20207;-89
2023/06/11 10:18:13;;;;;;;6.13;3.88;;;27.80;1.00;;;;;;4990412;28;20215;-87
2023/06/11 10:20:53;;;;;;;6.18;3.83;;;27.90;1.00;;;;;;4988808;28;20214;-89
2023/06/11 10:23:21;;;;;;;5.55;3.53;;;28.10;1.00;;;;;;4993572;28;20199;-88
2023/06/11 10:25:55;;;;;;;8.02;3.63;;;28.20;1.00;;;;;;4984469;28;20202;-88
2023/06/11 10:28:34;;;;;;;4.72;3.65;;;28.20;1.00;;;;;;4987085;28;20190;-88
2023/06/11 10:31:01;;;;;;;7.50;3.53;;;28.20;1.00;;;;;;4994844;28;20249;-87
2023/06/11 10:33:42;;;;;;;5.32;3.60;;;28.20;1.00;;;;;;4996801;28;20201;-87
2023/06/11 10:36:21;;;;;;;4.20;3.38;;;28.20;1.00;;;;;;4996245;28;20195;-87
2023/06/11 10:38:48;;;;;;;5.93;3.33;;;28.30;1.00;;;;;;4993499;28;20215;-87
2023/06/11 10:41:14;;;;;;;5.55;3.67;;;28.30;1.00;;;;;;4989886;28;20198;-88
2023/06/11 10:43:41;;;;;;;5.10;3.38;;;28.40;1.00;;;;;;4995717;28;20187;-87
2023/06/11 10:46:11;;;;;;;6.53;3.65;;;28.50;1.00;;;;;;4988569;28;20665;-87
2023/06/11 10:48:45;;;;;;;6.43;3.30;;;28.50;1.00;;;;;;4994587;28;20246;-89
2023/06/11 10:51:15;;;;;;;4.78;3.60;;;28.50;1.00;;;;;;4994869;28;20203;-87
2023/06/11 10:53:42;;;;;;;7.05;3.97;;;28.40;1.00;;;;;;4993004;28;20213;-87
2023/06/11 10:56:12;;;;;;;7.40;3.97;;;28.20;1.00;;;;;;4985245;28;20198;-87
2023/06/11 10:58:40;;;;;;;7.07;3.83;;;28.20;1.00;;;;;;4994178;28;20227;-87
2023/06/11 11:01:08;;;;;;;5.50;3.53;;;28.40;1.00;;;;;;4982384;28;20314;-88
2023/06/11 11:03:35;;;;;;;5.18;3.90;;;28.60;1.00;;;;;;4986097;28;20199;-87
2023/06/11 11:06:03;;;;;;;8.48;3.58;;;28.80;1.00;;;;;;4981319;28;20685;-88
2023/06/11 11:08:31;;;;;;;7.10;3.70;;;28.90;1.00;;;;;;4983645;28;20199;-86
2023/06/11 11:11:00;;;;;;;6.07;3.50;;;28.90;1.00;;;;;;4980605;28;20206;-87
2023/06/11 11:13:27;;;;;;;5.70;3.60;;;28.80;1.00;;;;;;4988882;28;20202;-87
2023/06/11 11:15:54;;;;;;;4.45;3.50;;;28.70;1.00;;;;;;4993193;28;20195;-88
2023/06/11 11:18:21;;;;;;;5.07;3.65;;;28.70;1.00;;;;;;4983050;28;20601;-87
2023/06/11 11:20:48;;;;;;;5.47;3.67;;;28.90;1.00;;;;;;4990762;28;20276;-86
2023/06/11 11:23:15;;;;;;;5.05;3.78;;;29.00;1.00;;;;;;4993173;28;20206;-89
2023/06/11 11:25:43;;;;;;;4.32;3.78;;;29.10;1.00;;;;;;4992680;28;20723;-86
2023/06/11 11:28:12;;;;;;;5.78;3.78;;;29.20;1.00;;;;;;4994670;28;20269;-86
2023/06/11 11:30:39;;;;;;;6.35;4.15;;;29.20;1.00;;;;;;4994556;28;20265;-86
2023/06/11 11:33:06;;;;;;;5.85;3.50;;;29.30;1.00;;;;;;4994749;28;20574;-85
2023/06/11 11:35:33;;;;;;;7.47;3.47;;;29.20;1.00;;;;;;4994078;28;20203;-86
2023/06/11 11:38:00;;;;;;;6.15;3.58;;;29.00;1.00;;;;;;4992633;28;20210;-86
2023/06/11 11:40:29;;;;;;;9.30;4.03;;;28.80;1.00;;;;;;4994325;28;20199;-86
2023/06/11 11:42:58;;;;;;;4.78;3.30;;;28.60;1.00;;;;;;4993228;28;20630;-87
2023/06/11 11:45:32;;;;;;;5.60;3.58;;;28.50;1.00;;;;;;4994485;28;20203;-87
2023/06/11 11:47:59;;;;;;;5.80;3.60;;;28.60;1.00;;;;;;4994483;28;20222;-86
2023/06/11 11:50:30;;;;;;;7.65;3.83;;;28.50;1.00;;;;;;4994331;28;20567;-86
2023/06/11 11:53:03;;;;;;;4.70;3.47;;;28.60;1.00;;;;;;4979169;28;20261;-87
2023/06/11 11:55:30;;;;;;;5.80;5.30;;;28.80;1.00;;;;;;4991207;28;20199;-86
2023/06/11 11:58:06;;;;;;;3.50;3.20;;;28.90;1.00;;;;;;4994055;28;20594;-87
2023/06/11 12:00:34;;;;;;;8.50;3.97;;;29.10;1.00;;;;;;4994040;28;20199;-87
2023/06/11 12:03:07;;;;;;;4.03;3.13;;;29.10;1.00;;;;;;4994012;28;20253;-87
2023/06/11 12:05:34;;;;;;;5.03;3.78;;;29.20;1.00;;;;;;4994112;28;20209;-87
2023/06/11 12:08:01;;;;;;;7.25;4.35;;;29.20;1.00;;;;;;4994124;28;20197;-87
2023/06/11 12:10:28;;;;;;;7.53;3.88;;;29.20;1.00;;;;;;4994391;28;20205;-87
2023/06/11 12:12:55;;;;;;;4.70;3.92;;;29.10;1.00;;;;;;4993810;28;20195;-87
2023/06/11 12:15:23;;;;;;;4.65;4.15;;;29.10;1.00;;;;;;4994002;28;20213;-87
2023/06/11 12:17:51;;;;;;;7.35;3.97;;;28.90;1.00;;;;;;4993647;28;20688;-87
2023/06/11 12:20:18;;;;;;;6.95;3.70;;;28.80;1.00;;;;;;4993813;28;20287;-87
2023/06/11 12:22:45;;;;;;;5.25;3.35;;;28.50;1.00;;;;;;4993617;28;20199;-87
2023/06/11 12:25:12;;;;;;;3.85;3.30;;;28.50;1.00;;;;;;4993859;28;20206;-87
2023/06/11 12:27:39;;;;;;;4.63;3.63;;;28.50;1.00;;;;;;4993607;28;20195;-86
2023/06/11 12:30:07;;;;;;;4.00;3.60;;;28.50;1.00;;;;;;4993663;28;20199;-87
2023/06/11 12:32:35;;;;;;;4.22;3.50;;;28.30;1.00;;;;;;4993469;28;20202;-88
2023/06/11 12:35:02;;;;;;;4.57;4.05;;;28.00;1.00;;;;;;4993352;28;20261;-87
2023/06/11 12:37:30;;;;;;;4.32;3.65;;;27.70;1.00;;;;;;4993686;28;20218;-87
2023/06/11 12:39:57;;;;;;;4.38;3.97;;;27.50;1.00;;;;;;4992081;28;20708;-87
2023/06/11 12:42:24;;;;;;;4.47;3.65;;;27.70;1.00;;;;;;4993322;28;20685;-87
2023/06/11 12:44:51;;;;;;;4.28;3.65;;;28.10;1.00;;;;;;4993213;28;20198;-87
2023/06/11 12:47:18;;;;;;;6.25;3.50;;;28.50;1.00;;;;;;4993340;28;20190;-87
2023/06/11 12:49:46;;;;;;;6.38;3.83;;;28.80;1.00;;;;;;4993184;28;20203;-87
2023/06/11 12:52:13;;;;;;;6.20;4.07;;;29.10;1.00;;;;;;4993457;28;20195;-87